Time;durP1;ratioP1;P1;durP2;ratioP2;P2;SDS_P1;SDS_P2;PMS_P1;PMS_P2;Temp;Humidity;BMP_temperature;BMP_pressure;BME280_temperature;BME280_humidity;BME280_pressure;Samples;Min_cycle;Max_cycle;Signal;HPM_P1;HPM_P2
2022/08/01 00:01:02;;;;;;;2.83;1.08;;;21.90;52.50;;;;;;5050660;28;20033;-62
2022/08/01 00:03:28;;;;;;;2.38;1.20;;;21.90;52.50;;;;;;5052602;28;20559;-61
2022/08/01 00:05:53;;;;;;;1.33;1.20;;;21.90;52.60;;;;;;5047341;28;20671;-61
2022/08/01 00:08:19;;;;;;;1.42;1.00;;;21.90;52.60;;;;;;5046100;28;20462;-63
2022/08/01 00:10:45;;;;;;;3.88;1.10;;;21.90;52.70;;;;;;5050496;28;20025;-62
2022/08/01 00:13:10;;;;;;;2.92;1.20;;;21.80;52.60;;;;;;5051542;28;20026;-62
2022/08/01 00:15:36;;;;;;;4.57;1.52;;;21.80;52.60;;;;;;5048494;28;20033;-61
2022/08/01 00:18:02;;;;;;;5.13;1.25;;;21.80;52.50;;;;;;5054251;28;20408;-62
2022/08/01 00:20:27;;;;;;;2.28;1.25;;;21.80;52.70;;;;;;5053584;28;20037;-62
2022/08/01 00:22:53;;;;;;;2.63;1.17;;;21.80;52.50;;;;;;5058811;28;20037;-61
2022/08/01 00:25:19;;;;;;;6.00;1.20;;;21.80;52.40;;;;;;5052843;28;20120;-61
2022/08/01 00:27:44;;;;;;;1.98;1.20;;;21.80;52.50;;;;;;5058065;28;20083;-61
2022/08/01 00:30:10;;;;;;;2.33;1.38;;;21.70;52.60;;;;;;5055317;28;20058;-61
2022/08/01 00:32:36;;;;;;;2.05;1.40;;;21.70;52.50;;;;;;5024973;28;20044;-61
2022/08/01 00:35:02;;;;;;;4.13;2.72;;;21.70;52.80;;;;;;5057013;28;20037;-61
2022/08/01 00:37:27;;;;;;;4.97;3.05;;;21.70;52.80;;;;;;5045830;28;20050;-62
2022/08/01 00:39:53;;;;;;;8.55;5.47;;;21.70;52.90;;;;;;5046631;28;20057;-61
2022/08/01 00:42:19;;;;;;;11.75;6.43;;;21.60;52.80;;;;;;5059835;28;20033;-62
2022/08/01 00:44:45;;;;;;;8.88;6.00;;;21.60;52.80;;;;;;5026214;28;20037;-62
2022/08/01 00:47:11;;;;;;;6.45;5.13;;;21.50;52.90;;;;;;5042320;28;20067;-62
2022/08/01 00:49:36;;;;;;;6.82;2.72;;;21.50;52.90;;;;;;5043617;28;20045;-62
2022/08/01 00:52:04;;;;;;;4.88;2.10;;;21.50;53.10;;;;;;5044115;28;20045;-63
2022/08/01 00:54:30;;;;;;;5.22;1.70;;;21.50;53.00;;;;;;5043194;28;20365;-62
2022/08/01 00:56:56;;;;;;;1.83;1.40;;;21.40;53.20;;;;;;5041470;28;20030;-62
2022/08/01 00:59:22;;;;;;;3.95;1.25;;;21.40;53.20;;;;;;5040942;28;20026;-62
2022/08/01 01:01:49;;;;;;;2.00;1.13;;;21.40;53.30;;;;;;5044609;28;20040;-61
2022/08/01 01:04:14;;;;;;;5.60;1.38;;;21.40;53.30;;;;;;5043502;28;20112;-63
2022/08/01 01:06:55;;;;;;;2.45;1.30;;;21.30;53.30;;;;;;5046757;28;20061;-62
2022/08/01 01:09:29;;;;;;;1.55;1.23;;;21.30;53.60;;;;;;5059649;28;20025;-62
2022/08/01 01:12:12;;;;;;;3.80;1.30;;;21.30;53.70;;;;;;5043199;28;20107;-62
2022/08/01 01:14:37;;;;;;;1.85;1.20;;;21.30;53.60;;;;;;5039391;28;20033;-61
2022/08/01 01:17:07;;;;;;;2.03;1.27;;;21.30;53.40;;;;;;5036507;28;20038;-62
2022/08/01 01:19:39;;;;;;;2.17;1.30;;;21.30;53.70;;;;;;5058299;28;20037;-61
2022/08/01 01:22:08;;;;;;;2.45;1.40;;;21.30;53.60;;;;;;5023928;28;20786;-61
2022/08/01 01:24:49;;;;;;;2.38;1.40;;;21.30;53.50;;;;;;5038974;28;20041;-61
2022/08/01 01:27:14;;;;;;;1.80;1.23;;;21.20;52.80;;;;;;5036353;28;20077;-62
2022/08/01 01:29:43;;;;;;;4.68;1.30;;;21.20;53.10;;;;;;5035931;28;20057;-62
2022/08/01 01:32:16;;;;;;;2.22;1.20;;;21.30;52.90;;;;;;5024519;28;20122;-61
2022/08/01 01:34:45;;;;;;;3.17;1.33;;;21.30;53.00;;;;;;5046123;28;20048;-60
2022/08/01 01:37:24;;;;;;;2.08;1.35;;;21.30;52.50;;;;;;5049153;28;20036;-60
2022/08/01 01:39:52;;;;;;;2.08;0.90;;;21.40;52.80;;;;;;5061968;28;20029;-61
2022/08/01 01:42:19;;;;;;;2.83;1.30;;;21.40;53.00;;;;;;5056511;28;20034;-62
2022/08/01 01:44:46;;;;;;;1.48;1.20;;;21.40;52.70;;;;;;5041154;28;20026;-61
2022/08/01 01:47:14;;;;;;;2.13;1.40;;;21.50;52.80;;;;;;5022980;28;20030;-61
2022/08/01 01:49:42;;;;;;;2.33;1.30;;;21.50;52.90;;;;;;5042132;28;20061;-61
2022/08/01 01:52:09;;;;;;;1.77;1.25;;;21.50;52.90;;;;;;5040354;28;20029;-62
2022/08/01 01:54:42;;;;;;;1.17;0.90;;;21.50;53.00;;;;;;5038566;28;20052;-61
2022/08/01 01:57:10;;;;;;;5.67;1.47;;;21.50;53.10;;;;;;5038757;28;20064;-61
2022/08/01 01:59:38;;;;;;;1.80;1.17;;;21.50;52.60;;;;;;5039413;28;20489;-61
2022/08/01 02:02:06;;;;;;;6.05;1.63;;;21.50;52.90;;;;;;5041592;28;20022;-61
2022/08/01 02:04:34;;;;;;;3.65;1.55;;;21.50;52.70;;;;;;5040535;28;20393;-61
2022/08/01 02:07:02;;;;;;;1.55;1.35;;;21.50;52.50;;;;;;5035226;28;20513;-60
2022/08/01 02:09:30;;;;;;;1.52;1.17;;;21.50;52.70;;;;;;5040821;28;20100;-60
2022/08/01 02:11:58;;;;;;;4.53;1.30;;;21.50;52.80;;;;;;5042397;28;20085;-61
2022/08/01 02:14:26;;;;;;;4.93;1.60;;;21.50;52.60;;;;;;5033384;28;20048;-61
2022/08/01 02:16:54;;;;;;;3.55;1.40;;;21.50;52.30;;;;;;5037570;28;20068;-61
2022/08/01 02:19:20;;;;;;;1.67;1.30;;;21.50;52.10;;;;;;5056702;28;20025;-62
2022/08/01 02:22:00;;;;;;;2.28;1.25;;;21.50;52.10;;;;;;5042674;28;20026;-61
2022/08/01 02:25:03;;;;;;;2.15;1.42;;;21.60;52.00;;;;;;5024560;28;20033;-62
2022/08/01 02:27:42;;;;;;;1.98;1.25;;;21.60;52.50;;;;;;5024990;28;20476;-61
2022/08/01 02:30:12;;;;;;;1.73;1.08;;;21.70;52.80;;;;;;5032038;28;20673;-61
2022/08/01 02:32:47;;;;;;;1.52;1.10;;;21.70;52.70;;;;;;5044856;28;20026;-62
2022/08/01 02:35:24;;;;;;;2.40;1.50;;;21.60;52.80;;;;;;5044514;28;20048;-61
2022/08/01 02:37:52;;;;;;;1.48;1.17;;;21.60;52.50;;;;;;5027423;28;20056;-61
2022/08/01 02:40:18;;;;;;;4.60;1.23;;;21.60;52.50;;;;;;5052924;28;22229;-61
2022/08/01 02:42:46;;;;;;;1.65;1.30;;;21.60;52.70;;;;;;5043939;28;20100;-61
2022/08/01 02:45:13;;;;;;;2.72;1.70;;;21.50;52.40;;;;;;5055441;28;20087;-62
2022/08/01 02:47:42;;;;;;;1.58;1.33;;;21.60;52.30;;;;;;5031061;28;20042;-62
2022/08/01 02:50:11;;;;;;;2.80;1.42;;;21.50;52.10;;;;;;5044312;28;20046;-61
2022/08/01 02:52:38;;;;;;;2.30;1.58;;;21.60;52.20;;;;;;5055482;28;20476;-61
2022/08/01 02:55:07;;;;;;;2.92;1.50;;;21.60;52.20;;;;;;5033235;28;20125;-62
2022/08/01 02:57:35;;;;;;;2.75;1.40;;;21.60;52.10;;;;;;5037088;28;20029;-61
2022/08/01 03:00:01;;;;;;;2.47;1.20;;;21.60;52.00;;;;;;5045665;28;20392;-62
2022/08/01 03:02:28;;;;;;;2.67;1.33;;;21.70;52.00;;;;;;5040728;28;20028;-61
2022/08/01 03:04:57;;;;;;;1.50;1.40;;;21.70;51.90;;;;;;5062736;28;20413;-61
2022/08/01 03:07:24;;;;;;;1.40;1.27;;;21.70;51.80;;;;;;5036420;28;20044;-60
2022/08/01 03:09:51;;;;;;;3.55;1.35;;;21.80;51.80;;;;;;5062015;28;20128;-62
2022/08/01 03:12:20;;;;;;;4.15;1.42;;;21.80;51.70;;;;;;5029546;28;20359;-62
2022/08/01 03:14:49;;;;;;;2.30;1.30;;;21.80;51.80;;;;;;5049202;28;20037;-60
2022/08/01 03:17:16;;;;;;;2.47;1.50;;;21.80;51.70;;;;;;5044240;28;20079;-61
2022/08/01 03:19:45;;;;;;;2.22;1.13;;;21.90;51.80;;;;;;5064556;28;20029;-61
2022/08/01 03:22:12;;;;;;;1.52;1.30;;;21.90;51.80;;;;;;5036235;28;20133;-60
2022/08/01 03:24:40;;;;;;;1.63;1.38;;;21.90;51.70;;;;;;5062278;28;20063;-61
2022/08/01 03:27:07;;;;;;;1.75;1.42;;;21.90;51.90;;;;;;5044742;28;20044;-62
2022/08/01 03:29:35;;;;;;;1.83;1.40;;;21.90;51.90;;;;;;5056611;28;20115;-60
2022/08/01 03:32:02;;;;;;;1.52;1.33;;;21.90;51.90;;;;;;5045318;28;20028;-61
2022/08/01 03:34:28;;;;;;;2.90;1.70;;;21.90;51.80;;;;;;5048628;28;20064;-62
2022/08/01 03:37:24;;;;;;;2.13;1.38;;;21.90;52.00;;;;;;5058077;28;20031;-60
2022/08/01 03:40:07;;;;;;;2.03;1.55;;;21.90;51.80;;;;;;5038883;28;20068;-59
2022/08/01 03:42:44;;;;;;;1.20;1.10;;;22.00;51.90;;;;;;5042148;28;20093;-60
2022/08/01 03:45:15;;;;;;;2.03;1.40;;;21.90;51.80;;;;;;5026491;28;20033;-61
2022/08/01 03:47:43;;;;;;;1.60;1.45;;;22.00;51.80;;;;;;5042450;28;20071;-62
2022/08/01 03:50:11;;;;;;;2.65;1.23;;;21.90;51.90;;;;;;5057379;28;20106;-62
2022/08/01 03:52:39;;;;;;;2.20;1.55;;;22.00;52.10;;;;;;5032645;28;20033;-63
2022/08/01 03:55:07;;;;;;;2.17;1.50;;;21.90;51.90;;;;;;5064538;28;20055;-62
2022/08/01 03:57:34;;;;;;;2.20;1.33;;;21.90;52.00;;;;;;5042913;28;20107;-60
2022/08/01 04:00:00;;;;;;;3.45;1.15;;;21.90;51.90;;;;;;5046247;28;20085;-62
2022/08/01 04:02:27;;;;;;;1.95;1.50;;;21.90;52.00;;;;;;5044830;28;20033;-62
2022/08/01 04:04:54;;;;;;;2.42;1.60;;;22.00;52.10;;;;;;5043993;28;20119;-61
2022/08/01 04:07:31;;;;;;;2.03;1.50;;;22.00;52.10;;;;;;5036826;28;20120;-62
2022/08/01 04:09:58;;;;;;;3.85;1.35;;;22.00;52.10;;;;;;5033964;28;20022;-61
2022/08/01 04:12:24;;;;;;;1.60;1.50;;;22.00;52.10;;;;;;5036674;28;20026;-58
2022/08/01 04:14:50;;;;;;;5.93;1.67;;;22.00;52.10;;;;;;5033112;28;20022;-60
2022/08/01 04:17:16;;;;;;;4.97;1.52;;;22.00;52.40;;;;;;5052473;28;20092;-61
2022/08/01 04:19:43;;;;;;;3.33;1.77;;;22.00;52.30;;;;;;5051460;28;20108;-61
2022/08/01 04:22:12;;;;;;;3.67;1.63;;;22.00;52.40;;;;;;5041079;28;20112;-61
2022/08/01 04:24:39;;;;;;;2.38;1.83;;;22.00;52.50;;;;;;5027567;28;20030;-61
2022/08/01 04:27:09;;;;;;;2.20;1.40;;;22.00;52.40;;;;;;5043519;28;20042;-61
2022/08/01 04:29:36;;;;;;;3.03;1.50;;;22.00;52.40;;;;;;5035077;28;20041;-61
2022/08/01 04:32:03;;;;;;;3.83;1.45;;;22.10;52.50;;;;;;5036469;28;20164;-62
2022/08/01 04:34:31;;;;;;;1.38;1.27;;;22.00;52.50;;;;;;5042200;28;20029;-60
2022/08/01 04:37:00;;;;;;;2.47;1.40;;;22.10;52.60;;;;;;5053068;28;20021;-60
2022/08/01 04:39:28;;;;;;;6.18;1.38;;;22.10;52.60;;;;;;5039261;28;20056;-61
2022/08/01 04:41:56;;;;;;;1.85;1.45;;;22.10;52.60;;;;;;5042402;28;20022;-61
2022/08/01 04:44:23;;;;;;;3.25;1.35;;;22.10;52.60;;;;;;5045324;28;20081;-62
2022/08/01 04:46:50;;;;;;;1.33;1.23;;;22.10;52.60;;;;;;5043382;28;20036;-60
2022/08/01 04:49:16;;;;;;;2.10;1.50;;;22.10;52.70;;;;;;5047532;28;20448;-61
2022/08/01 04:51:59;;;;;;;1.58;1.33;;;22.20;52.80;;;;;;5048503;28;20033;-61
2022/08/01 04:54:26;;;;;;;2.63;1.48;;;22.20;52.80;;;;;;5023870;28;20053;-59
2022/08/01 04:56:58;;;;;;;3.88;1.50;;;22.20;52.70;;;;;;5047386;28;20087;-60
2022/08/01 04:59:39;;;;;;;4.32;1.40;;;22.30;52.70;;;;;;5027860;28;20038;-60
2022/08/01 05:02:09;;;;;;;1.60;1.30;;;22.30;52.60;;;;;;5037811;28;20085;-61
2022/08/01 05:04:35;;;;;;;3.25;1.30;;;22.30;52.90;;;;;;5062736;28;20029;-61
2022/08/01 05:07:01;;;;;;;1.88;1.55;;;22.40;52.80;;;;;;5036799;28;20046;-61
2022/08/01 05:09:27;;;;;;;3.42;1.73;;;22.40;52.70;;;;;;5063576;28;20025;-61
2022/08/01 05:11:53;;;;;;;2.03;1.50;;;22.40;53.20;;;;;;5038230;28;20497;-63
2022/08/01 05:14:19;;;;;;;4.10;1.65;;;22.40;52.60;;;;;;5049228;28;20029;-61
2022/08/01 05:16:45;;;;;;;3.60;1.70;;;22.40;52.80;;;;;;5042798;28;20059;-60
2022/08/01 05:19:11;;;;;;;2.25;2.03;;;22.50;52.80;;;;;;5045306;28;20075;-62
2022/08/01 05:21:37;;;;;;;2.92;1.70;;;22.50;53.50;;;;;;5046349;28;20034;-61
2022/08/01 05:24:06;;;;;;;5.15;1.70;;;22.50;52.90;;;;;;5032778;28;20200;-60
2022/08/01 05:26:31;;;;;;;4.75;1.90;;;22.50;52.90;;;;;;5043954;28;20095;-62
2022/08/01 05:28:57;;;;;;;3.63;1.90;;;22.50;52.90;;;;;;5053947;28;20044;-61
2022/08/01 05:31:22;;;;;;;1.77;1.35;;;22.50;53.00;;;;;;5051169;28;20250;-59
2022/08/01 05:33:48;;;;;;;4.72;2.03;;;22.60;53.00;;;;;;5053311;28;20112;-62
2022/08/01 05:36:14;;;;;;;2.05;1.50;;;22.60;53.00;;;;;;5053450;28;20017;-62
2022/08/01 05:38:39;;;;;;;2.03;1.38;;;22.60;53.10;;;;;;5043567;28;20136;-60
2022/08/01 05:41:05;;;;;;;1.55;1.33;;;22.60;53.10;;;;;;5053310;28;20113;-61
2022/08/01 05:43:31;;;;;;;2.65;1.60;;;22.70;53.20;;;;;;5051024;28;20037;-60
2022/08/01 05:45:58;;;;;;;2.25;1.70;;;22.70;53.30;;;;;;5048838;28;20032;-60
2022/08/01 05:48:24;;;;;;;4.50;1.48;;;22.70;53.20;;;;;;5021887;28;20052;-61
2022/08/01 05:50:50;;;;;;;1.85;1.40;;;22.80;53.10;;;;;;5049479;28;20432;-61
2022/08/01 05:53:16;;;;;;;3.45;1.30;;;22.80;53.00;;;;;;5026193;28;20033;-61
2022/08/01 05:55:42;;;;;;;4.25;1.42;;;22.90;53.20;;;;;;5054650;28;20029;-60
2022/08/01 05:58:08;;;;;;;2.60;1.45;;;22.90;53.20;;;;;;5023387;28;20033;-61
2022/08/01 06:00:34;;;;;;;2.30;1.60;;;23.00;53.20;;;;;;5043205;28;20464;-63
2022/08/01 06:03:00;;;;;;;1.48;1.30;;;23.10;53.30;;;;;;5057675;28;20044;-60
2022/08/01 06:05:25;;;;;;;2.10;1.40;;;23.20;53.30;;;;;;5037644;28;20037;-61
2022/08/01 06:07:51;;;;;;;1.80;1.50;;;23.40;53.20;;;;;;5042667;28;20361;-61
2022/08/01 06:10:17;;;;;;;3.20;1.90;;;23.60;52.90;;;;;;5060999;28;20033;-62
2022/08/01 06:12:42;;;;;;;3.53;1.50;;;23.70;52.50;;;;;;5033517;28;20029;-61
2022/08/01 06:15:08;;;;;;;2.20;1.45;;;23.90;52.20;;;;;;5060112;28;20029;-60
2022/08/01 06:17:34;;;;;;;1.88;1.50;;;23.90;52.00;;;;;;5039870;28;20032;-60
2022/08/01 06:19:59;;;;;;;1.55;1.45;;;24.00;51.90;;;;;;5043000;28;20140;-61
2022/08/01 06:22:25;;;;;;;2.08;1.38;;;24.00;52.00;;;;;;5029950;28;20053;-61
2022/08/01 06:24:51;;;;;;;1.58;1.30;;;24.10;51.90;;;;;;5054005;28;20034;-60
2022/08/01 06:27:17;;;;;;;1.65;1.33;;;24.10;51.90;;;;;;5037389;28;20030;-60
2022/08/01 06:29:43;;;;;;;2.45;1.38;;;24.20;51.80;;;;;;5043958;28;20080;-61
2022/08/01 06:32:09;;;;;;;2.85;1.45;;;24.20;51.80;;;;;;5043938;28;20400;-61
2022/08/01 06:34:35;;;;;;;1.90;1.38;;;24.20;51.90;;;;;;5056848;28;20056;-60
2022/08/01 06:37:01;;;;;;;1.88;1.50;;;24.30;52.00;;;;;;5044517;28;20042;-59
2022/08/01 06:39:27;;;;;;;3.95;1.33;;;24.40;51.90;;;;;;5051764;28;20037;-60
2022/08/01 06:41:52;;;;;;;2.92;1.35;;;24.40;51.80;;;;;;5045804;28;20025;-61
2022/08/01 06:44:18;;;;;;;2.65;1.30;;;24.50;52.00;;;;;;5043863;28;20041;-60
2022/08/01 06:46:44;;;;;;;2.25;1.10;;;24.60;51.60;;;;;;5028108;28;20053;-59
2022/08/01 06:49:10;;;;;;;4.97;1.35;;;24.80;51.60;;;;;;5041732;28;20186;-57
2022/08/01 06:51:35;;;;;;;2.45;1.27;;;24.90;51.30;;;;;;5042132;28;20041;-59
2022/08/01 06:54:01;;;;;;;3.40;1.42;;;25.00;51.10;;;;;;5036285;28;20033;-58
2022/08/01 06:56:27;;;;;;;1.73;1.20;;;25.10;51.00;;;;;;5028871;28;20033;-61
2022/08/01 06:58:52;;;;;;;2.00;1.10;;;25.20;50.70;;;;;;5029532;28;20030;-60
2022/08/01 07:01:18;;;;;;;3.67;1.00;;;25.30;50.40;;;;;;5040682;28;20094;-62
2022/08/01 07:03:44;;;;;;;1.02;0.90;;;25.40;50.40;;;;;;5026061;28;20057;-61
2022/08/01 07:06:10;;;;;;;3.53;1.10;;;25.40;50.50;;;;;;5040018;28;20038;-61
2022/08/01 07:08:36;;;;;;;1.88;1.10;;;25.50;50.40;;;;;;5033111;28;20039;-62
2022/08/01 07:11:03;;;;;;;2.55;1.05;;;25.70;50.40;;;;;;5040301;28;20097;-60
2022/08/01 07:13:30;;;;;;;1.30;0.82;;;25.80;50.00;;;;;;5036408;28;20029;-59
2022/08/01 07:15:56;;;;;;;3.90;1.13;;;25.90;49.40;;;;;;5028079;28;20037;-61
2022/08/01 07:18:22;;;;;;;1.10;0.80;;;26.00;49.30;;;;;;5043455;28;20025;-62
2022/08/01 07:20:49;;;;;;;1.40;0.90;;;26.10;49.30;;;;;;5039597;28;20040;-62
2022/08/01 07:23:15;;;;;;;0.93;0.77;;;26.20;48.80;;;;;;5033029;28;20029;-61
2022/08/01 07:25:41;;;;;;;2.67;0.82;;;26.20;48.80;;;;;;5055002;28;20425;-61
2022/08/01 07:28:07;;;;;;;3.90;1.00;;;26.30;48.70;;;;;;5023685;28;20068;-61
2022/08/01 07:30:33;;;;;;;2.25;0.80;;;26.40;48.60;;;;;;5051586;28;20030;-60
2022/08/01 07:32:59;;;;;;;1.15;0.90;;;26.50;48.50;;;;;;5026901;28;20306;-59
2022/08/01 07:35:24;;;;;;;1.13;0.80;;;26.50;48.40;;;;;;5036864;28;20031;-60
2022/08/01 07:37:50;;;;;;;1.08;0.63;;;26.60;48.20;;;;;;5030816;28;20025;-59
2022/08/01 07:40:17;;;;;;;1.05;0.57;;;26.70;47.90;;;;;;5044772;28;20037;-59
2022/08/01 07:42:44;;;;;;;1.40;0.93;;;26.80;47.80;;;;;;5034709;28;20037;-59
2022/08/01 07:45:11;;;;;;;1.52;0.70;;;26.80;47.50;;;;;;5045198;28;20030;-59
2022/08/01 07:47:37;;;;;;;1.20;0.80;;;26.90;47.60;;;;;;5041322;28;20038;-60
2022/08/01 07:50:05;;;;;;;0.75;0.70;;;27.00;47.30;;;;;;5038378;28;20109;-60
2022/08/01 07:52:30;;;;;;;0.80;0.80;;;27.10;47.40;;;;;;5036911;28;20026;-59
2022/08/01 07:54:57;;;;;;;2.42;1.10;;;27.20;47.30;;;;;;5046750;28;20041;-59
2022/08/01 07:57:23;;;;;;;1.35;0.82;;;27.30;47.20;;;;;;5042641;28;20032;-60
2022/08/01 07:59:49;;;;;;;1.48;0.80;;;27.50;47.40;;;;;;5051460;28;20033;-61
2022/08/01 08:02:15;;;;;;;0.80;0.65;;;27.60;46.90;;;;;;5038663;28;20036;-61
2022/08/01 08:04:41;;;;;;;0.73;0.50;;;27.70;46.30;;;;;;5045805;28;20029;-61
2022/08/01 08:07:07;;;;;;;2.75;0.73;;;27.80;46.10;;;;;;5042717;28;20029;-62
2022/08/01 08:09:32;;;;;;;1.20;0.73;;;27.90;46.10;;;;;;5045369;28;20060;-61
2022/08/01 08:11:58;;;;;;;1.60;0.80;;;28.00;45.90;;;;;;5047495;28;20089;-61
2022/08/01 08:14:24;;;;;;;0.68;0.68;;;28.00;45.60;;;;;;5037432;28;20057;-62
2022/08/01 08:16:50;;;;;;;1.75;0.90;;;28.10;45.20;;;;;;5043406;28;20032;-61
2022/08/01 08:19:16;;;;;;;5.60;0.95;;;28.10;45.00;;;;;;5043826;28;20040;-62
2022/08/01 08:21:42;;;;;;;1.73;0.90;;;28.00;45.10;;;;;;5040992;28;20026;-60
2022/08/01 08:24:22;;;;;;;5.05;0.70;;;28.00;44.80;;;;;;5048327;28;20072;-60
2022/08/01 08:26:53;;;;;;;1.98;0.90;;;28.00;44.80;;;;;;5034901;28;20045;-61
2022/08/01 08:29:19;;;;;;;2.35;0.80;;;27.90;44.50;;;;;;5051993;28;20063;-61
2022/08/01 08:31:46;;;;;;;1.33;0.90;;;27.90;44.40;;;;;;5046518;28;20052;-60
2022/08/01 08:34:12;;;;;;;2.33;1.05;;;27.80;44.60;;;;;;5056057;28;20017;-60
2022/08/01 08:36:38;;;;;;;3.30;0.82;;;27.80;44.60;;;;;;5037774;28;20029;-60
2022/08/01 08:39:04;;;;;;;1.77;0.80;;;27.80;44.80;;;;;;5047958;28;20041;-60
2022/08/01 08:41:32;;;;;;;2.15;0.88;;;27.80;45.60;;;;;;5030560;28;20034;-60
2022/08/01 08:43:58;;;;;;;1.25;0.80;;;27.90;45.00;;;;;;5035597;28;20069;-61
2022/08/01 08:46:27;;;;;;;1.60;0.80;;;27.90;44.90;;;;;;5040774;28;20033;-61
2022/08/01 08:48:53;;;;;;;2.88;0.98;;;28.00;44.80;;;;;;5043766;28;20110;-60
2022/08/01 08:51:20;;;;;;;2.58;0.60;;;28.00;44.50;;;;;;5042642;28;20622;-61
2022/08/01 08:53:47;;;;;;;1.70;0.70;;;28.00;44.60;;;;;;5028378;28;20065;-60
2022/08/01 08:56:13;;;;;;;1.10;0.80;;;28.10;44.70;;;;;;5037746;28;20539;-61
2022/08/01 08:58:45;;;;;;;2.83;1.00;;;28.10;44.90;;;;;;5053628;28;20084;-59
2022/08/01 09:01:12;;;;;;;1.55;1.00;;;28.20;44.80;;;;;;5026494;28;20045;-61
2022/08/01 09:03:39;;;;;;;3.90;1.80;;;28.30;44.40;;;;;;5053764;28;20021;-61
2022/08/01 09:06:05;;;;;;;1.70;0.95;;;28.30;44.30;;;;;;5041773;28;20064;-61
2022/08/01 09:08:32;;;;;;;1.15;0.73;;;28.30;44.00;;;;;;5042369;28;20037;-60
2022/08/01 09:10:58;;;;;;;1.35;0.88;;;28.30;44.40;;;;;;5037031;28;20033;-60
2022/08/01 09:13:23;;;;;;;2.08;1.00;;;28.30;43.90;;;;;;5033416;28;20483;-61
2022/08/01 09:15:53;;;;;;;1.48;0.90;;;28.30;43.70;;;;;;5046735;28;20037;-59
2022/08/01 09:18:35;;;;;;;1.83;0.88;;;28.30;43.70;;;;;;5038567;28;20464;-61
2022/08/01 09:21:15;;;;;;;0.98;0.70;;;28.20;43.50;;;;;;5042789;28;20022;-60
2022/08/01 09:23:49;;;;;;;1.55;0.90;;;28.20;43.70;;;;;;5040876;28;20029;-61
2022/08/01 09:26:21;;;;;;;1.60;0.90;;;28.20;44.20;;;;;;5040582;28;20025;-62
2022/08/01 09:28:48;;;;;;;2.45;0.98;;;28.20;44.50;;;;;;5032080;28;20040;-61
2022/08/01 09:31:16;;;;;;;1.17;0.73;;;28.20;44.00;;;;;;5038387;28;20044;-61
2022/08/01 09:33:56;;;;;;;0.70;0.70;;;28.30;44.30;;;;;;5029970;28;20047;-60
2022/08/01 09:36:24;;;;;;;1.77;0.80;;;28.40;43.60;;;;;;5034130;28;20026;-61
2022/08/01 09:38:52;;;;;;;0.60;0.60;;;28.50;43.60;;;;;;5028773;28;20029;-62
2022/08/01 09:41:27;;;;;;;2.55;0.80;;;28.60;43.90;;;;;;5034718;28;20035;-61
2022/08/01 09:43:53;;;;;;;2.20;0.88;;;28.70;43.70;;;;;;5030780;28;20499;-59
2022/08/01 09:46:19;;;;;;;1.35;0.90;;;28.80;43.40;;;;;;5029389;28;20025;-60
2022/08/01 09:49:04;;;;;;;0.68;0.68;;;28.80;43.00;;;;;;5030222;28;20586;-60
2022/08/01 09:51:36;;;;;;;2.85;0.95;;;28.80;42.90;;;;;;5044130;28;20129;-60
2022/08/01 09:54:04;;;;;;;0.70;0.70;;;28.80;43.10;;;;;;5026757;28;20026;-60
2022/08/01 09:56:37;;;;;;;0.82;0.80;;;28.80;43.40;;;;;;5047522;28;20096;-60
2022/08/01 09:59:04;;;;;;;1.77;0.90;;;28.90;42.50;;;;;;5036607;28;20025;-61
2022/08/01 10:01:45;;;;;;;2.17;1.10;;;29.00;42.90;;;;;;5040934;28;20025;-61
2022/08/01 10:04:20;;;;;;;4.05;0.85;;;29.00;42.70;;;;;;5039188;28;20019;-61
2022/08/01 10:06:52;;;;;;;0.77;0.73;;;29.00;42.40;;;;;;5057981;28;20021;-60
2022/08/01 10:09:33;;;;;;;1.08;0.80;;;29.00;42.20;;;;;;5039660;28;20033;-60
2022/08/01 10:11:59;;;;;;;1.50;1.00;;;29.00;41.80;;;;;;5034933;28;20025;-60
2022/08/01 10:14:27;;;;;;;1.52;1.00;;;29.00;42.30;;;;;;5022426;28;20038;-59
2022/08/01 10:16:54;;;;;;;1.23;0.90;;;28.90;42.50;;;;;;5052599;28;20026;-61
2022/08/01 10:19:23;;;;;;;3.83;1.25;;;29.00;42.50;;;;;;5023967;28;20030;-60
2022/08/01 10:21:52;;;;;;;1.77;1.05;;;29.00;42.30;;;;;;5049969;28;20572;-60
2022/08/01 10:24:22;;;;;;;1.30;0.75;;;29.10;42.30;;;;;;5059696;28;20025;-60
2022/08/01 10:26:51;;;;;;;3.67;0.90;;;29.10;42.10;;;;;;5043162;28;20480;-61
2022/08/01 10:29:20;;;;;;;1.75;1.00;;;29.10;42.20;;;;;;5035680;28;20054;-60
2022/08/01 10:31:47;;;;;;;1.23;1.10;;;29.00;41.80;;;;;;5058547;28;20032;-59
2022/08/01 10:34:18;;;;;;;2.45;0.95;;;29.00;41.70;;;;;;5050531;28;20026;-61
2022/08/01 10:36:46;;;;;;;1.98;0.90;;;29.00;41.80;;;;;;5055778;28;20057;-61
2022/08/01 10:39:12;;;;;;;2.15;1.35;;;29.10;42.70;;;;;;5029771;28;20089;-59
2022/08/01 10:41:39;;;;;;;1.35;1.02;;;29.20;42.40;;;;;;5038675;28;20064;-61
2022/08/01 10:44:09;;;;;;;1.70;0.90;;;29.30;42.40;;;;;;5030662;28;20088;-60
2022/08/01 10:46:42;;;;;;;3.17;1.05;;;29.40;42.10;;;;;;5037861;28;20047;-61
2022/08/01 10:49:12;;;;;;;2.25;1.00;;;29.40;41.50;;;;;;5030409;28;20049;-61
2022/08/01 10:51:40;;;;;;;2.13;0.80;;;29.50;41.70;;;;;;5036252;28;20033;-62
2022/08/01 10:54:07;;;;;;;1.45;0.90;;;29.70;41.70;;;;;;5040607;28;20109;-63
2022/08/01 10:56:47;;;;;;;2.90;1.02;;;29.80;41.50;;;;;;5039961;28;20021;-63
2022/08/01 10:59:29;;;;;;;1.45;1.10;;;29.90;40.80;;;;;;5034610;28;20029;-61
2022/08/01 11:02:00;;;;;;;1.63;1.20;;;30.10;40.50;;;;;;5031844;28;20160;-62
2022/08/01 11:04:51;;;;;;;1.85;1.15;;;30.20;40.60;;;;;;5029121;28;20093;-60
2022/08/01 11:07:20;;;;;;;3.10;1.30;;;30.40;39.50;;;;;;5031185;28;20097;-61
2022/08/01 11:09:47;;;;;;;1.50;1.10;;;30.30;39.20;;;;;;5035584;28;20519;-61
2022/08/01 11:12:15;;;;;;;1.60;1.05;;;30.20;39.60;;;;;;5022255;28;20097;-61
2022/08/01 11:14:59;;;;;;;2.05;0.95;;;30.00;39.90;;;;;;5045091;28;20036;-60
2022/08/01 11:17:33;;;;;;;1.85;1.02;;;29.80;39.90;;;;;;5043106;28;20040;-61
2022/08/01 11:20:11;;;;;;;1.00;0.77;;;29.60;40.30;;;;;;5037333;28;20480;-61
2022/08/01 11:22:58;;;;;;;1.17;1.00;;;29.50;40.60;;;;;;5033972;28;20030;-59
2022/08/01 11:25:25;;;;;;;1.30;1.00;;;29.30;40.80;;;;;;5042930;28;20037;-61
2022/08/01 11:28:13;;;;;;;1.98;1.20;;;29.20;41.30;;;;;;5037192;28;20041;-61
2022/08/01 11:30:44;;;;;;;3.10;1.10;;;29.00;41.80;;;;;;5034257;28;20100;-62
2022/08/01 11:33:10;;;;;;;1.55;1.10;;;28.80;41.60;;;;;;5027713;28;20025;-61
2022/08/01 11:35:37;;;;;;;2.67;0.90;;;28.70;42.10;;;;;;5027044;28;20034;-61
2022/08/01 11:38:27;;;;;;;1.75;1.20;;;28.50;42.50;;;;;;5045476;28;20021;-61
2022/08/01 11:41:12;;;;;;;2.42;1.08;;;28.40;42.60;;;;;;5028496;28;20051;-61
2022/08/01 11:43:59;;;;;;;1.73;1.10;;;28.40;43.00;;;;;;5034289;28;20121;-60
2022/08/01 11:46:48;;;;;;;2.55;1.30;;;28.40;42.90;;;;;;5039457;28;20049;-61
2022/08/01 11:49:22;;;;;;;1.20;1.00;;;28.30;43.30;;;;;;5028677;28;20491;-60
2022/08/01 11:51:49;;;;;;;2.20;1.20;;;28.30;43.10;;;;;;5036861;28;20049;-62
2022/08/01 11:54:16;;;;;;;10.00;1.77;;;28.30;43.30;;;;;;5037356;28;20037;-61
2022/08/01 11:56:41;;;;;;;1.95;1.33;;;28.40;43.50;;;;;;5036073;28;20028;-61
2022/08/01 11:59:07;;;;;;;2.50;1.20;;;28.60;44.10;;;;;;5033554;28;20088;-61
2022/08/01 12:01:34;;;;;;;1.65;1.20;;;28.80;44.00;;;;;;5031942;28;20034;-61
2022/08/01 12:03:59;;;;;;;1.67;1.20;;;29.00;44.50;;;;;;5043281;28;20033;-60
2022/08/01 12:06:29;;;;;;;4.15;1.55;;;29.30;43.90;;;;;;5049061;28;20093;-60
2022/08/01 12:08:54;;;;;;;2.20;1.20;;;29.60;43.40;;;;;;5034962;28;20045;-60
2022/08/01 12:11:20;;;;;;;3.03;1.20;;;29.90;43.20;;;;;;5048539;28;20025;-59
2022/08/01 12:13:47;;;;;;;2.17;1.40;;;30.20;41.80;;;;;;5041310;28;20562;-61
2022/08/01 12:16:14;;;;;;;1.80;1.25;;;30.50;40.40;;;;;;5063986;28;20028;-61
2022/08/01 12:18:43;;;;;;;1.98;1.30;;;30.60;40.10;;;;;;5030135;28;20034;-62
2022/08/01 12:21:09;;;;;;;1.83;1.05;;;30.70;39.50;;;;;;5062981;28;20048;-60
2022/08/01 12:23:35;;;;;;;1.42;0.95;;;30.90;39.90;;;;;;5041502;28;20480;-60
2022/08/01 12:26:01;;;;;;;1.52;1.02;;;31.00;40.00;;;;;;5062699;28;20037;-60
2022/08/01 12:28:27;;;;;;;5.82;1.30;;;31.20;39.70;;;;;;5048342;28;20060;-61
2022/08/01 12:30:53;;;;;;;1.52;1.30;;;31.30;38.60;;;;;;5043831;28;20053;-62
2022/08/01 12:33:20;;;;;;;3.33;1.40;;;31.30;37.80;;;;;;5055073;28;20029;-61
2022/08/01 12:35:46;;;;;;;2.78;1.40;;;31.20;37.80;;;;;;5062920;28;20028;-61
2022/08/01 12:38:32;;;;;;;2.10;1.10;;;31.10;37.60;;;;;;5048914;28;20035;-61
2022/08/01 12:40:58;;;;;;;3.33;1.30;;;30.90;36.80;;;;;;5056891;28;20037;-60
2022/08/01 12:43:25;;;;;;;1.45;1.10;;;30.80;37.80;;;;;;5057853;28;20393;-61
2022/08/01 12:45:52;;;;;;;2.10;1.20;;;30.70;38.50;;;;;;5063348;28;20047;-61
2022/08/01 12:48:19;;;;;;;4.43;1.23;;;30.60;38.90;;;;;;5055978;28;20045;-60
2022/08/01 12:50:47;;;;;;;2.20;1.20;;;30.50;38.60;;;;;;5047236;28;20029;-62
2022/08/01 12:53:18;;;;;;;3.58;1.60;;;30.50;38.80;;;;;;5061239;28;20090;-61
2022/08/01 12:55:48;;;;;;;2.03;1.42;;;30.40;38.40;;;;;;5056382;28;20099;-61